sensor_id;sensor_type;location;lat;lon;timestamp;temperature;humidity
12384;DHT22;6256;63.808;20.336;2023-03-14T00:02:22;-1.80;99.90
12384;DHT22;6256;63.808;20.336;2023-03-14T00:04:48;-1.80;99.90
12384;DHT22;6256;63.808;20.336;2023-03-14T00:07:14;-1.80;99.90
12384;DHT22;6256;63.808;20.336;2023-03-14T00:09:40;-1.80;99.90
12384;DHT22;6256;63.808;20.336;2023-03-14T00:12:06;-1.80;99.90
12384;DHT22;6256;63.808;20.336;2023-03-14T00:14:33;-1.80;99.90
12384;DHT22;6256;63.808;20.336;2023-03-14T00:16:59;-1.80;99.90
12384;DHT22;6256;63.808;20.336;2023-03-14T00:19:24;-1.80;99.90
12384;DHT22;6256;63.808;20.336;2023-03-14T00:21:50;-1.80;99.90
12384;DHT22;6256;63.808;20.336;2023-03-14T00:24:16;-1.80;99.90
12384;DHT22;6256;63.808;20.336;2023-03-14T00:26:41;-1.80;99.90
12384;DHT22;6256;63.808;20.336;2023-03-14T00:29:07;-1.80;99.90
12384;DHT22;6256;63.808;20.336;2023-03-14T00:31:32;-1.90;99.90
12384;DHT22;6256;63.808;20.336;2023-03-14T00:33:58;-1.80;99.90
12384;DHT22;6256;63.808;20.336;2023-03-14T00:36:24;-1.80;99.90
12384;DHT22;6256;63.808;20.336;2023-03-14T00:38:50;-1.80;99.90
12384;DHT22;6256;63.808;20.336;2023-03-14T00:41:22;-1.80;99.90
12384;DHT22;6256;63.808;20.336;2023-03-14T00:43:48;-1.80;99.90
12384;DHT22;6256;63.808;20.336;2023-03-14T00:46:14;-1.80;99.90
12384;DHT22;6256;63.808;20.336;2023-03-14T00:48:40;-1.80;99.90
12384;DHT22;6256;63.808;20.336;2023-03-14T00:51:07;-1.80;99.90
12384;DHT22;6256;63.808;20.336;2023-03-14T00:53:36;-1.80;99.90
12384;DHT22;6256;63.808;20.336;2023-03-14T00:56:04;-1.80;99.90
12384;DHT22;6256;63.808;20.336;2023-03-14T00:58:30;-1.80;99.90
12384;DHT22;6256;63.808;20.336;2023-03-14T01:00:56;-1.80;99.90
12384;DHT22;6256;63.808;20.336;2023-03-14T01:03:21;-1.80;99.90
12384;DHT22;6256;63.808;20.336;2023-03-14T01:05:47;-1.90;99.90
12384;DHT22;6256;63.808;20.336;2023-03-14T01:08:13;-1.90;99.90
12384;DHT22;6256;63.808;20.336;2023-03-14T01:10:39;-1.90;99.90
12384;DHT22;6256;63.808;20.336;2023-03-14T01:13:05;-1.90;99.90
12384;DHT22;6256;63.808;20.336;2023-03-14T01:15:33;-1.90;99.90
12384;DHT22;6256;63.808;20.336;2023-03-14T01:17:59;-1.90;99.90
12384;DHT22;6256;63.808;20.336;2023-03-14T01:20:24;-1.90;99.90
12384;DHT22;6256;63.808;20.336;2023-03-14T01:22:50;-1.90;99.90
12384;DHT22;6256;63.808;20.336;2023-03-14T01:25:17;-1.90;99.90
12384;DHT22;6256;63.808;20.336;2023-03-14T01:27:43;-1.90;99.90
12384;DHT22;6256;63.808;20.336;2023-03-14T01:30:10;-1.80;99.90
12384;DHT22;6256;63.808;20.336;2023-03-14T01:32:36;-1.90;99.90
12384;DHT22;6256;63.808;20.336;2023-03-14T01:35:02;-1.90;99.90
12384;DHT22;6256;63.808;20.336;2023-03-14T01:37:28;-1.90;99.90
12384;DHT22;6256;63.808;20.336;2023-03-14T01:39:53;-1.90;99.90
12384;DHT22;6256;63.808;20.336;2023-03-14T01:42:19;-1.80;99.90
12384;DHT22;6256;63.808;20.336;2023-03-14T01:44:48;-1.90;99.90
12384;DHT22;6256;63.808;20.336;2023-03-14T01:47:14;-1.80;99.90
12384;DHT22;6256;63.808;20.336;2023-03-14T01:49:40;-1.90;99.90
12384;DHT22;6256;63.808;20.336;2023-03-14T01:52:16;-1.80;99.90
12384;DHT22;6256;63.808;20.336;2023-03-14T01:54:59;-1.80;99.90
12384;DHT22;6256;63.808;20.336;2023-03-14T01:57:36;-1.80;99.90
12384;DHT22;6256;63.808;20.336;2023-03-14T02:00:20;-1.80;99.90
12384;DHT22;6256;63.808;20.336;2023-03-14T02:02:53;-1.80;99.90
12384;DHT22;6256;63.808;20.336;2023-03-14T02:05:23;-1.80;99.90
12384;DHT22;6256;63.808;20.336;2023-03-14T02:07:55;-1.80;99.90
12384;DHT22;6256;63.808;20.336;2023-03-14T02:10:24;-1.80;99.90
12384;DHT22;6256;63.808;20.336;2023-03-14T02:12:53;-1.80;99.90
12384;DHT22;6256;63.808;20.336;2023-03-14T02:15:20;-1.80;99.90
12384;DHT22;6256;63.808;20.336;2023-03-14T02:17:46;-1.80;99.90
12384;DHT22;6256;63.808;20.336;2023-03-14T02:22:55;-1.80;99.90
12384;DHT22;6256;63.808;20.336;2023-03-14T02:27:49;-1.80;99.90
12384;DHT22;6256;63.808;20.336;2023-03-14T02:30:21;-1.80;99.90
12384;DHT22;6256;63.808;20.336;2023-03-14T02:32:51;-1.80;99.90
12384;DHT22;6256;63.808;20.336;2023-03-14T02:35:21;-1.80;99.90
12384;DHT22;6256;63.808;20.336;2023-03-14T02:40:38;-1.80;99.90
12384;DHT22;6256;63.808;20.336;2023-03-14T02:43:03;-1.80;99.90
12384;DHT22;6256;63.808;20.336;2023-03-14T02:45:37;-1.80;99.90
12384;DHT22;6256;63.808;20.336;2023-03-14T02:48:07;-1.80;99.90
12384;DHT22;6256;63.808;20.336;2023-03-14T02:50:34;-1.80;99.90
12384;DHT22;6256;63.808;20.336;2023-03-14T02:53:00;-1.80;99.90
12384;DHT22;6256;63.808;20.336;2023-03-14T02:55:26;-1.80;99.90
12384;DHT22;6256;63.808;20.336;2023-03-14T02:57:52;-1.80;99.90
12384;DHT22;6256;63.808;20.336;2023-03-14T03:00:18;-1.80;99.90
12384;DHT22;6256;63.808;20.336;2023-03-14T03:02:44;-1.80;99.90
12384;DHT22;6256;63.808;20.336;2023-03-14T03:05:10;-1.80;99.90
12384;DHT22;6256;63.808;20.336;2023-03-14T03:07:36;-1.80;99.90
12384;DHT22;6256;63.808;20.336;2023-03-14T03:10:02;-1.80;99.90
12384;DHT22;6256;63.808;20.336;2023-03-14T03:12:28;-1.80;99.90
12384;DHT22;6256;63.808;20.336;2023-03-14T03:14:54;-1.80;99.90
12384;DHT22;6256;63.808;20.336;2023-03-14T03:17:19;-1.90;99.90
12384;DHT22;6256;63.808;20.336;2023-03-14T03:19:45;-1.80;99.90
12384;DHT22;6256;63.808;20.336;2023-03-14T03:22:11;-1.90;99.90
12384;DHT22;6256;63.808;20.336;2023-03-14T03:24:36;-1.90;99.90
12384;DHT22;6256;63.808;20.336;2023-03-14T03:27:02;-1.90;99.90
12384;DHT22;6256;63.808;20.336;2023-03-14T03:29:28;-1.90;99.90
12384;DHT22;6256;63.808;20.336;2023-03-14T03:31:54;-1.90;99.90
12384;DHT22;6256;63.808;20.336;2023-03-14T03:34:19;-1.90;99.90
12384;DHT22;6256;63.808;20.336;2023-03-14T03:36:45;-2.00;99.90
12384;DHT22;6256;63.808;20.336;2023-03-14T03:39:11;-2.00;99.90
12384;DHT22;6256;63.808;20.336;2023-03-14T03:41:36;-2.00;99.90
12384;DHT22;6256;63.808;20.336;2023-03-14T03:44:03;-2.00;99.90
12384;DHT22;6256;63.808;20.336;2023-03-14T03:46:28;-2.10;99.90
12384;DHT22;6256;63.808;20.336;2023-03-14T03:48:59;-2.10;99.90
12384;DHT22;6256;63.808;20.336;2023-03-14T03:51:25;-2.00;99.90
12384;DHT22;6256;63.808;20.336;2023-03-14T03:53:51;-2.00;99.90
12384;DHT22;6256;63.808;20.336;2023-03-14T03:56:17;-2.00;99.90
12384;DHT22;6256;63.808;20.336;2023-03-14T03:58:43;-2.00;99.90
12384;DHT22;6256;63.808;20.336;2023-03-14T04:01:09;-2.00;99.90
12384;DHT22;6256;63.808;20.336;2023-03-14T04:03:36;-2.00;99.90
12384;DHT22;6256;63.808;20.336;2023-03-14T04:06:09;-2.00;99.90
12384;DHT22;6256;63.808;20.336;2023-03-14T04:08:35;-2.00;99.90
12384;DHT22;6256;63.808;20.336;2023-03-14T04:11:01;-2.00;99.90
12384;DHT22;6256;63.808;20.336;2023-03-14T04:13:28;-2.00;99.90
12384;DHT22;6256;63.808;20.336;2023-03-14T04:15:55;-2.00;99.90
12384;DHT22;6256;63.808;20.336;2023-03-14T04:18:21;-2.00;99.90
12384;DHT22;6256;63.808;20.336;2023-03-14T04:20:54;-2.00;99.90
12384;DHT22;6256;63.808;20.336;2023-03-14T04:23:22;-2.00;99.90
12384;DHT22;6256;63.808;20.336;2023-03-14T04:25:50;-2.00;99.90
12384;DHT22;6256;63.808;20.336;2023-03-14T04:28:16;-2.00;99.90
12384;DHT22;6256;63.808;20.336;2023-03-14T04:30:42;-1.90;99.90
12384;DHT22;6256;63.808;20.336;2023-03-14T04:33:07;-1.90;99.90
12384;DHT22;6256;63.808;20.336;2023-03-14T04:35:34;-1.90;99.90
12384;DHT22;6256;63.808;20.336;2023-03-14T04:38:00;-1.90;99.90
12384;DHT22;6256;63.808;20.336;2023-03-14T04:40:26;-1.90;99.90
12384;DHT22;6256;63.808;20.336;2023-03-14T04:42:51;-1.90;99.90
12384;DHT22;6256;63.808;20.336;2023-03-14T04:45:17;-1.90;99.90
12384;DHT22;6256;63.808;20.336;2023-03-14T04:47:43;-1.90;99.90
12384;DHT22;6256;63.808;20.336;2023-03-14T04:50:09;-1.90;99.90
12384;DHT22;6256;63.808;20.336;2023-03-14T04:52:35;-1.90;99.90
12384;DHT22;6256;63.808;20.336;2023-03-14T04:55:01;-1.90;99.90
12384;DHT22;6256;63.808;20.336;2023-03-14T04:57:27;-1.90;99.90
12384;DHT22;6256;63.808;20.336;2023-03-14T04:59:53;-1.90;99.90
12384;DHT22;6256;63.808;20.336;2023-03-14T05:02:19;-1.90;99.90
12384;DHT22;6256;63.808;20.336;2023-03-14T05:04:44;-1.90;99.90
12384;DHT22;6256;63.808;20.336;2023-03-14T05:07:10;-1.90;99.90
12384;DHT22;6256;63.808;20.336;2023-03-14T05:09:35;-2.00;99.90
12384;DHT22;6256;63.808;20.336;2023-03-14T05:12:01;-2.00;99.90
12384;DHT22;6256;63.808;20.336;2023-03-14T05:14:27;-2.00;99.90
12384;DHT22;6256;63.808;20.336;2023-03-14T05:16:53;-1.90;99.90
12384;DHT22;6256;63.808;20.336;2023-03-14T05:19:18;-1.90;99.90
12384;DHT22;6256;63.808;20.336;2023-03-14T05:21:44;-2.00;99.90
12384;DHT22;6256;63.808;20.336;2023-03-14T05:24:10;-2.00;99.90
12384;DHT22;6256;63.808;20.336;2023-03-14T05:26:35;-2.00;99.90
12384;DHT22;6256;63.808;20.336;2023-03-14T05:29:01;-1.90;99.90
12384;DHT22;6256;63.808;20.336;2023-03-14T05:31:27;-2.00;99.90
12384;DHT22;6256;63.808;20.336;2023-03-14T05:33:53;-1.90;99.90
12384;DHT22;6256;63.808;20.336;2023-03-14T05:36:18;-1.90;99.90
12384;DHT22;6256;63.808;20.336;2023-03-14T05:38:44;-1.90;99.90
12384;DHT22;6256;63.808;20.336;2023-03-14T05:41:13;-1.90;99.90
12384;DHT22;6256;63.808;20.336;2023-03-14T05:43:39;-1.90;99.90
12384;DHT22;6256;63.808;20.336;2023-03-14T05:46:05;-1.90;99.90
12384;DHT22;6256;63.808;20.336;2023-03-14T05:48:30;-1.90;99.90
12384;DHT22;6256;63.808;20.336;2023-03-14T05:50:57;-1.90;99.90
12384;DHT22;6256;63.808;20.336;2023-03-14T05:53:22;-1.90;99.90
12384;DHT22;6256;63.808;20.336;2023-03-14T05:55:52;-1.80;99.90
12384;DHT22;6256;63.808;20.336;2023-03-14T05:58:18;-1.90;99.90
12384;DHT22;6256;63.808;20.336;2023-03-14T06:00:43;-1.80;99.90
12384;DHT22;6256;63.808;20.336;2023-03-14T06:03:09;-1.80;99.90
12384;DHT22;6256;63.808;20.336;2023-03-14T06:05:34;-1.70;99.90
12384;DHT22;6256;63.808;20.336;2023-03-14T06:08:00;-1.70;99.90
12384;DHT22;6256;63.808;20.336;2023-03-14T06:10:26;-1.70;99.90
12384;DHT22;6256;63.808;20.336;2023-03-14T06:12:52;-1.70;99.90
12384;DHT22;6256;63.808;20.336;2023-03-14T06:15:17;-1.70;99.90
12384;DHT22;6256;63.808;20.336;2023-03-14T06:17:43;-1.70;99.90
12384;DHT22;6256;63.808;20.336;2023-03-14T06:20:10;-1.70;99.90
12384;DHT22;6256;63.808;20.336;2023-03-14T06:22:35;-1.70;99.90
12384;DHT22;6256;63.808;20.336;2023-03-14T06:25:01;-1.70;99.90
12384;DHT22;6256;63.808;20.336;2023-03-14T06:27:29;-1.60;99.90
12384;DHT22;6256;63.808;20.336;2023-03-14T06:29:54;-1.60;99.90
12384;DHT22;6256;63.808;20.336;2023-03-14T06:32:20;-1.60;99.90
12384;DHT22;6256;63.808;20.336;2023-03-14T06:34:46;-1.60;99.90
12384;DHT22;6256;63.808;20.336;2023-03-14T06:37:12;-1.50;99.90
12384;DHT22;6256;63.808;20.336;2023-03-14T06:39:37;-1.50;99.90
12384;DHT22;6256;63.808;20.336;2023-03-14T06:42:04;-1.40;99.90
12384;DHT22;6256;63.808;20.336;2023-03-14T06:44:30;-1.50;99.90
12384;DHT22;6256;63.808;20.336;2023-03-14T06:46:56;-1.50;99.90
12384;DHT22;6256;63.808;20.336;2023-03-14T06:49:21;-1.50;99.90
12384;DHT22;6256;63.808;20.336;2023-03-14T06:51:47;-1.50;99.90
12384;DHT22;6256;63.808;20.336;2023-03-14T06:54:13;-1.50;99.90
12384;DHT22;6256;63.808;20.336;2023-03-14T06:56:39;-1.50;99.90
12384;DHT22;6256;63.808;20.336;2023-03-14T06:59:04;-1.40;99.90
12384;DHT22;6256;63.808;20.336;2023-03-14T07:01:31;-1.50;99.90
12384;DHT22;6256;63.808;20.336;2023-03-14T07:03:58;-1.40;99.90
12384;DHT22;6256;63.808;20.336;2023-03-14T07:06:24;-1.30;99.90
12384;DHT22;6256;63.808;20.336;2023-03-14T07:08:50;-1.30;99.90
12384;DHT22;6256;63.808;20.336;2023-03-14T07:11:16;-1.30;99.90
12384;DHT22;6256;63.808;20.336;2023-03-14T07:13:42;-1.30;99.90
12384;DHT22;6256;63.808;20.336;2023-03-14T07:16:08;-1.30;99.90
12384;DHT22;6256;63.808;20.336;2023-03-14T07:18:34;-1.20;99.90
12384;DHT22;6256;63.808;20.336;2023-03-14T07:21:00;-1.10;99.90
12384;DHT22;6256;63.808;20.336;2023-03-14T07:23:25;-1.00;99.90
12384;DHT22;6256;63.808;20.336;2023-03-14T07:25:51;-1.00;99.90
12384;DHT22;6256;63.808;20.336;2023-03-14T07:28:19;-1.00;99.90
12384;DHT22;6256;63.808;20.336;2023-03-14T07:30:46;-1.00;99.90
12384;DHT22;6256;63.808;20.336;2023-03-14T07:33:12;-1.00;99.90
12384;DHT22;6256;63.808;20.336;2023-03-14T07:35:38;-1.00;99.90
12384;DHT22;6256;63.808;20.336;2023-03-14T07:38:03;-1.00;99.90
12384;DHT22;6256;63.808;20.336;2023-03-14T07:40:29;-1.00;99.90
12384;DHT22;6256;63.808;20.336;2023-03-14T07:42:55;-1.00;99.90
12384;DHT22;6256;63.808;20.336;2023-03-14T07:45:21;-0.90;99.90
12384;DHT22;6256;63.808;20.336;2023-03-14T07:47:46;-0.90;99.90
12384;DHT22;6256;63.808;20.336;2023-03-14T07:50:12;-0.90;99.90
12384;DHT22;6256;63.808;20.336;2023-03-14T07:52:38;-1.00;99.90
12384;DHT22;6256;63.808;20.336;2023-03-14T07:55:04;-0.90;99.90
12384;DHT22;6256;63.808;20.336;2023-03-14T07:57:30;-0.90;99.90
12384;DHT22;6256;63.808;20.336;2023-03-14T07:59:55;-0.90;99.90
12384;DHT22;6256;63.808;20.336;2023-03-14T08:02:21;-0.80;99.90
12384;DHT22;6256;63.808;20.336;2023-03-14T08:04:49;-0.80;99.90
12384;DHT22;6256;63.808;20.336;2023-03-14T08:07:15;-0.80;99.90
12384;DHT22;6256;63.808;20.336;2023-03-14T08:09:41;-0.80;99.90
12384;DHT22;6256;63.808;20.336;2023-03-14T08:12:06;-0.70;99.90
12384;DHT22;6256;63.808;20.336;2023-03-14T08:14:35;-0.60;99.90
12384;DHT22;6256;63.808;20.336;2023-03-14T08:17:01;-0.70;99.90
12384;DHT22;6256;63.808;20.336;2023-03-14T08:19:26;-0.60;99.90
12384;DHT22;6256;63.808;20.336;2023-03-14T08:21:52;-0.50;99.90
12384;DHT22;6256;63.808;20.336;2023-03-14T08:24:18;-0.50;99.90
12384;DHT22;6256;63.808;20.336;2023-03-14T08:26:44;-0.40;99.90
12384;DHT22;6256;63.808;20.336;2023-03-14T08:29:10;-0.30;99.90
12384;DHT22;6256;63.808;20.336;2023-03-14T08:31:38;-0.30;99.90
12384;DHT22;6256;63.808;20.336;2023-03-14T08:34:04;-0.30;99.90
12384;DHT22;6256;63.808;20.336;2023-03-14T08:36:31;-0.30;99.90
12384;DHT22;6256;63.808;20.336;2023-03-14T08:38:57;-0.20;99.90
12384;DHT22;6256;63.808;20.336;2023-03-14T08:41:22;-0.10;99.90
12384;DHT22;6256;63.808;20.336;2023-03-14T08:43:48;0.00;99.90
12384;DHT22;6256;63.808;20.336;2023-03-14T08:46:14;0.20;99.90
12384;DHT22;6256;63.808;20.336;2023-03-14T08:48:40;0.20;99.90
12384;DHT22;6256;63.808;20.336;2023-03-14T08:51:10;0.30;99.90
12384;DHT22;6256;63.808;20.336;2023-03-14T08:53:38;0.50;99.90
12384;DHT22;6256;63.808;20.336;2023-03-14T08:56:04;0.70;99.90
12384;DHT22;6256;63.808;20.336;2023-03-14T08:58:32;0.70;99.90
12384;DHT22;6256;63.808;20.336;2023-03-14T09:00:58;0.60;99.90
12384;DHT22;6256;63.808;20.336;2023-03-14T09:03:24;0.30;99.90
12384;DHT22;6256;63.808;20.336;2023-03-14T09:05:51;0.10;99.90
12384;DHT22;6256;63.808;20.336;2023-03-14T09:08:17;0.10;99.90
12384;DHT22;6256;63.808;20.336;2023-03-14T09:10:43;0.20;99.90
12384;DHT22;6256;63.808;20.336;2023-03-14T09:13:09;0.20;99.90
12384;DHT22;6256;63.808;20.336;2023-03-14T09:15:35;0.20;99.90
12384;DHT22;6256;63.808;20.336;2023-03-14T09:18:01;0.20;99.90
12384;DHT22;6256;63.808;20.336;2023-03-14T09:20:27;0.30;99.90
12384;DHT22;6256;63.808;20.336;2023-03-14T09:22:52;0.20;99.90
12384;DHT22;6256;63.808;20.336;2023-03-14T09:25:18;0.10;99.90
12384;DHT22;6256;63.808;20.336;2023-03-14T09:27:44;0.10;99.90
12384;DHT22;6256;63.808;20.336;2023-03-14T09:30:10;0.20;99.90
12384;DHT22;6256;63.808;20.336;2023-03-14T09:32:36;0.30;99.90
12384;DHT22;6256;63.808;20.336;2023-03-14T09:35:02;0.40;99.90
12384;DHT22;6256;63.808;20.336;2023-03-14T09:37:27;0.30;99.90
12384;DHT22;6256;63.808;20.336;2023-03-14T09:39:53;0.10;99.90
12384;DHT22;6256;63.808;20.336;2023-03-14T09:42:23;0.10;99.90
12384;DHT22;6256;63.808;20.336;2023-03-14T09:45:00;0.10;99.90
12384;DHT22;6256;63.808;20.336;2023-03-14T09:47:26;0.30;99.90
12384;DHT22;6256;63.808;20.336;2023-03-14T09:49:52;0.20;99.90
12384;DHT22;6256;63.808;20.336;2023-03-14T09:52:35;0.10;99.90
12384;DHT22;6256;63.808;20.336;2023-03-14T09:55:11;0.20;99.90
12384;DHT22;6256;63.808;20.336;2023-03-14T09:57:38;0.30;99.90
12384;DHT22;6256;63.808;20.336;2023-03-14T10:00:18;0.10;99.90
12384;DHT22;6256;63.808;20.336;2023-03-14T10:05:40;0.10;99.90
12384;DHT22;6256;63.808;20.336;2023-03-14T10:08:09;0.00;99.90
12384;DHT22;6256;63.808;20.336;2023-03-14T10:10:36;0.00;99.90
12384;DHT22;6256;63.808;20.336;2023-03-14T10:15:37;-0.10;99.90
12384;DHT22;6256;63.808;20.336;2023-03-14T10:18:05;-0.10;99.90
12384;DHT22;6256;63.808;20.336;2023-03-14T10:20:38;-0.20;99.90
12384;DHT22;6256;63.808;20.336;2023-03-14T10:23:07;-0.10;99.90
12384;DHT22;6256;63.808;20.336;2023-03-14T10:25:45;-0.30;99.90
12384;DHT22;6256;63.808;20.336;2023-03-14T10:28:29;-0.30;99.90
12384;DHT22;6256;63.808;20.336;2023-03-14T10:30:56;-0.20;99.90
12384;DHT22;6256;63.808;20.336;2023-03-14T10:33:27;0.00;99.90
12384;DHT22;6256;63.808;20.336;2023-03-14T10:36:03;0.10;99.90
12384;DHT22;6256;63.808;20.336;2023-03-14T10:38:34;0.20;99.90
12384;DHT22;6256;63.808;20.336;2023-03-14T10:41:01;0.20;99.90
12384;DHT22;6256;63.808;20.336;2023-03-14T10:43:36;0.10;99.90
12384;DHT22;6256;63.808;20.336;2023-03-14T10:46:31;0.10;99.90
12384;DHT22;6256;63.808;20.336;2023-03-14T10:48:58;0.10;99.90
12384;DHT22;6256;63.808;20.336;2023-03-14T10:51:29;0.20;99.90
12384;DHT22;6256;63.808;20.336;2023-03-14T10:54:19;0.20;99.90
12384;DHT22;6256;63.808;20.336;2023-03-14T10:56:59;0.30;99.90
12384;DHT22;6256;63.808;20.336;2023-03-14T10:59:29;0.30;99.90
12384;DHT22;6256;63.808;20.336;2023-03-14T11:05:23;0.30;99.90
12384;DHT22;6256;63.808;20.336;2023-03-14T11:07:53;0.50;99.90
12384;DHT22;6256;63.808;20.336;2023-03-14T11:10:34;0.70;99.90
12384;DHT22;6256;63.808;20.336;2023-03-14T11:13:23;0.80;99.90
12384;DHT22;6256;63.808;20.336;2023-03-14T11:26:39;0.40;99.90
12384;DHT22;6256;63.808;20.336;2023-03-14T11:31:44;0.60;99.90
12384;DHT22;6256;63.808;20.336;2023-03-14T11:34:29;0.70;99.90
12384;DHT22;6256;63.808;20.336;2023-03-14T11:42:40;0.80;99.90
12384;DHT22;6256;63.808;20.336;2023-03-14T11:45:36;0.70;99.90
12384;DHT22;6256;63.808;20.336;2023-03-14T11:48:44;0.80;99.90
12384;DHT22;6256;63.808;20.336;2023-03-14T11:51:21;0.80;99.90
12384;DHT22;6256;63.808;20.336;2023-03-14T11:57:01;0.80;99.90
12384;DHT22;6256;63.808;20.336;2023-03-14T12:02:01;0.70;99.90
12384;DHT22;6256;63.808;20.336;2023-03-14T12:04:51;0.80;99.90
12384;DHT22;6256;63.808;20.336;2023-03-14T12:07:23;0.70;99.90
12384;DHT22;6256;63.808;20.336;2023-03-14T12:09:51;0.80;99.90
12384;DHT22;6256;63.808;20.336;2023-03-14T12:12:23;1.00;99.90
12384;DHT22;6256;63.808;20.336;2023-03-14T12:14:58;1.00;99.90
12384;DHT22;6256;63.808;20.336;2023-03-14T12:20:05;1.10;99.90
12384;DHT22;6256;63.808;20.336;2023-03-14T12:22:44;1.10;99.90
12384;DHT22;6256;63.808;20.336;2023-03-14T12:25:27;1.20;99.90
12384;DHT22;6256;63.808;20.336;2023-03-14T12:30:36;0.90;99.90
12384;DHT22;6256;63.808;20.336;2023-03-14T12:35:45;0.80;99.90
12384;DHT22;6256;63.808;20.336;2023-03-14T12:38:32;0.90;99.90
12384;DHT22;6256;63.808;20.336;2023-03-14T12:41:17;0.80;99.90
12384;DHT22;6256;63.808;20.336;2023-03-14T12:43:44;0.60;99.90
12384;DHT22;6256;63.808;20.336;2023-03-14T12:46:22;0.60;99.90
12384;DHT22;6256;63.808;20.336;2023-03-14T12:51:42;0.70;99.90
12384;DHT22;6256;63.808;20.336;2023-03-14T12:54:36;0.80;99.90
12384;DHT22;6256;63.808;20.336;2023-03-14T13:00:02;1.10;99.90
12384;DHT22;6256;63.808;20.336;2023-03-14T13:02:41;1.20;99.90
12384;DHT22;6256;63.808;20.336;2023-03-14T13:05:14;1.20;99.90
12384;DHT22;6256;63.808;20.336;2023-03-14T13:10:26;1.20;99.90
12384;DHT22;6256;63.808;20.336;2023-03-14T13:13:19;1.30;99.90
12384;DHT22;6256;63.808;20.336;2023-03-14T13:15:47;1.10;99.90
12384;DHT22;6256;63.808;20.336;2023-03-14T13:18:23;0.70;99.90
12384;DHT22;6256;63.808;20.336;2023-03-14T13:23:31;0.70;99.90
12384;DHT22;6256;63.808;20.336;2023-03-14T13:26:05;0.70;99.90
12384;DHT22;6256;63.808;20.336;2023-03-14T13:28:44;0.70;99.90
12384;DHT22;6256;63.808;20.336;2023-03-14T13:31:51;0.50;99.90
12384;DHT22;6256;63.808;20.336;2023-03-14T13:34:40;0.70;99.90
12384;DHT22;6256;63.808;20.336;2023-03-14T13:37:38;0.90;99.90
12384;DHT22;6256;63.808;20.336;2023-03-14T13:40:27;1.00;99.90
12384;DHT22;6256;63.808;20.336;2023-03-14T13:45:49;1.10;99.90
12384;DHT22;6256;63.808;20.336;2023-03-14T13:48:36;1.10;99.90
12384;DHT22;6256;63.808;20.336;2023-03-14T13:51:06;1.10;99.90
12384;DHT22;6256;63.808;20.336;2023-03-14T13:53:52;1.00;99.90
12384;DHT22;6256;63.808;20.336;2023-03-14T13:56:20;0.70;99.90
12384;DHT22;6256;63.808;20.336;2023-03-14T13:58:47;0.70;99.90
12384;DHT22;6256;63.808;20.336;2023-03-14T14:01:27;0.60;99.90
12384;DHT22;6256;63.808;20.336;2023-03-14T14:03:56;0.60;99.90
12384;DHT22;6256;63.808;20.336;2023-03-14T14:06:30;0.50;99.90
12384;DHT22;6256;63.808;20.336;2023-03-14T14:08:59;0.50;99.90
12384;DHT22;6256;63.808;20.336;2023-03-14T14:11:43;0.40;99.90
12384;DHT22;6256;63.808;20.336;2023-03-14T14:14:16;0.50;99.90
12384;DHT22;6256;63.808;20.336;2023-03-14T14:16:45;0.50;99.90
12384;DHT22;6256;63.808;20.336;2023-03-14T14:19:13;0.50;99.90
12384;DHT22;6256;63.808;20.336;2023-03-14T14:21:39;0.60;99.90
12384;DHT22;6256;63.808;20.336;2023-03-14T14:24:05;0.70;99.90
12384;DHT22;6256;63.808;20.336;2023-03-14T14:26:31;0.60;99.90
12384;DHT22;6256;63.808;20.336;2023-03-14T14:29:04;0.60;99.90
12384;DHT22;6256;63.808;20.336;2023-03-14T14:31:30;0.60;99.90
12384;DHT22;6256;63.808;20.336;2023-03-14T14:34:00;0.60;99.90
12384;DHT22;6256;63.808;20.336;2023-03-14T14:36:28;0.70;99.90
12384;DHT22;6256;63.808;20.336;2023-03-14T14:39:05;0.80;99.90
12384;DHT22;6256;63.808;20.336;2023-03-14T14:41:35;0.80;99.90
12384;DHT22;6256;63.808;20.336;2023-03-14T14:44:04;0.90;99.90
12384;DHT22;6256;63.808;20.336;2023-03-14T14:46:33;0.80;99.90
12384;DHT22;6256;63.808;20.336;2023-03-14T14:49:09;0.90;99.90
12384;DHT22;6256;63.808;20.336;2023-03-14T14:51:43;0.90;99.90
12384;DHT22;6256;63.808;20.336;2023-03-14T14:54:13;1.00;99.90
12384;DHT22;6256;63.808;20.336;2023-03-14T14:56:39;1.00;99.90
12384;DHT22;6256;63.808;20.336;2023-03-14T14:59:17;1.00;99.90
12384;DHT22;6256;63.808;20.336;2023-03-14T15:01:44;0.80;99.90
12384;DHT22;6256;63.808;20.336;2023-03-14T15:04:12;0.70;99.90
12384;DHT22;6256;63.808;20.336;2023-03-14T15:06:40;0.60;99.90
12384;DHT22;6256;63.808;20.336;2023-03-14T15:09:10;0.50;99.90
12384;DHT22;6256;63.808;20.336;2023-03-14T15:11:36;0.40;99.90
12384;DHT22;6256;63.808;20.336;2023-03-14T15:14:02;0.30;99.90
12384;DHT22;6256;63.808;20.336;2023-03-14T15:16:30;0.30;99.90
12384;DHT22;6256;63.808;20.336;2023-03-14T15:18:58;0.30;99.90
12384;DHT22;6256;63.808;20.336;2023-03-14T15:21:25;0.40;99.90
12384;DHT22;6256;63.808;20.336;2023-03-14T15:23:51;0.30;99.90
12384;DHT22;6256;63.808;20.336;2023-03-14T15:26:26;0.30;99.90
12384;DHT22;6256;63.808;20.336;2023-03-14T15:28:52;0.20;99.90
12384;DHT22;6256;63.808;20.336;2023-03-14T15:31:18;0.20;99.90
12384;DHT22;6256;63.808;20.336;2023-03-14T15:33:45;0.30;99.90
12384;DHT22;6256;63.808;20.336;2023-03-14T15:36:43;0.20;99.90
12384;DHT22;6256;63.808;20.336;2023-03-14T15:39:10;0.10;99.90
12384;DHT22;6256;63.808;20.336;2023-03-14T15:41:36;0.20;99.90
12384;DHT22;6256;63.808;20.336;2023-03-14T15:44:02;0.20;99.90
12384;DHT22;6256;63.808;20.336;2023-03-14T15:46:28;0.20;99.90
12384;DHT22;6256;63.808;20.336;2023-03-14T15:48:54;0.20;99.90
12384;DHT22;6256;63.808;20.336;2023-03-14T15:51:19;0.20;99.90
12384;DHT22;6256;63.808;20.336;2023-03-14T15:53:45;0.20;99.90
12384;DHT22;6256;63.808;20.336;2023-03-14T15:56:16;0.10;99.90
12384;DHT22;6256;63.808;20.336;2023-03-14T15:58:42;0.10;99.90
12384;DHT22;6256;63.808;20.336;2023-03-14T16:01:12;0.20;99.90
12384;DHT22;6256;63.808;20.336;2023-03-14T16:03:38;0.20;99.90
12384;DHT22;6256;63.808;20.336;2023-03-14T16:06:04;0.20;99.90
12384;DHT22;6256;63.808;20.336;2023-03-14T16:08:30;0.20;99.90
12384;DHT22;6256;63.808;20.336;2023-03-14T16:10:57;0.20;99.90
12384;DHT22;6256;63.808;20.336;2023-03-14T16:13:23;0.20;99.90
12384;DHT22;6256;63.808;20.336;2023-03-14T16:15:57;0.20;99.90
12384;DHT22;6256;63.808;20.336;2023-03-14T16:18:23;0.10;99.90
12384;DHT22;6256;63.808;20.336;2023-03-14T16:20:56;0.10;99.90
12384;DHT22;6256;63.808;20.336;2023-03-14T16:23:22;0.10;99.90
12384;DHT22;6256;63.808;20.336;2023-03-14T16:25:49;0.00;99.90
12384;DHT22;6256;63.808;20.336;2023-03-14T16:28:14;-0.10;99.90
12384;DHT22;6256;63.808;20.336;2023-03-14T16:30:40;-0.20;99.90
12384;DHT22;6256;63.808;20.336;2023-03-14T16:33:09;-0.20;99.90
12384;DHT22;6256;63.808;20.336;2023-03-14T16:35:36;-0.20;99.90
12384;DHT22;6256;63.808;20.336;2023-03-14T16:38:03;-0.20;99.90
12384;DHT22;6256;63.808;20.336;2023-03-14T16:40:29;-0.20;99.90
12384;DHT22;6256;63.808;20.336;2023-03-14T16:42:54;-0.10;99.90
12384;DHT22;6256;63.808;20.336;2023-03-14T16:45:20;-0.10;99.90
12384;DHT22;6256;63.808;20.336;2023-03-14T16:47:46;-0.10;99.90
12384;DHT22;6256;63.808;20.336;2023-03-14T16:50:11;-0.20;99.90
12384;DHT22;6256;63.808;20.336;2023-03-14T16:52:37;-0.20;99.90